Time;durP1;ratioP1;P1;durP2;ratioP2;P2;SDS_P1;SDS_P2;PMS_P1;PMS_P2;Temp;Humidity;BMP_temperature;BMP_pressure;BME280_temperature;BME280_humidity;BME280_pressure;Samples;Min_cycle;Max_cycle;Signal;HPM_P1;HPM_P2
2022/12/12 00:00:16;;;;;;;;;14.75;14.25;;;;;17.44;28.17;100427.81;5056460;28;45353;-43
2022/12/12 00:02:42;;;;;;;;;18.25;12.75;;;;;17.49;28.42;100430.19;5074103;28;45196;-44
2022/12/12 00:05:12;;;;;;;;;13.75;13.75;;;;;17.51;28.02;100431.81;5072408;28;45360;-44
2022/12/12 00:07:38;;;;;;;;;15.50;10.75;;;;;17.54;28.07;100429.03;5057884;28;45329;-44
2022/12/12 00:10:03;;;;;;;;;17.00;15.33;;;;;17.57;27.99;100430.66;5056963;28;45253;-42
2022/12/12 00:12:29;;;;;;;;;15.50;14.50;;;;;17.60;28.24;100436.59;5056724;28;45272;-45
2022/12/12 00:14:54;;;;;;;;;15.67;14.00;;;;;17.64;28.05;100433.81;5056727;28;45370;-44
2022/12/12 00:17:20;;;;;;;;;15.00;14.00;;;;;17.65;28.01;100431.13;5057287;28;45530;-43
2022/12/12 00:19:45;;;;;;;;;14.25;14.25;;;;;17.68;28.14;100432.75;5059865;28;45476;-47
2022/12/12 00:22:10;;;;;;;;;15.00;15.00;;;;;17.70;27.96;100428.25;5080405;28;45254;-47
2022/12/12 00:24:35;;;;;;;;;17.67;13.67;;;;;17.72;27.99;100431.66;5068637;28;51211;-45
2022/12/12 00:27:01;;;;;;;;;14.75;13.50;;;;;17.74;27.90;100429.81;5059939;28;45571;-49
2022/12/12 00:29:26;;;;;;;;;13.75;13.00;;;;;17.76;27.94;100418.31;5066542;28;46463;-45
2022/12/12 00:31:51;;;;;;;;;13.50;12.00;;;;;17.80;28.06;100426.03;5080665;28;44656;-44
2022/12/12 00:34:17;;;;;;;;;13.75;12.00;;;;;17.81;28.02;100425.97;5080835;28;44610;-46
2022/12/12 00:36:42;;;;;;;;;12.33;12.33;;;;;17.82;27.78;100432.91;5060562;28;45162;-47
2022/12/12 00:39:07;;;;;;;;;16.50;12.50;;;;;17.84;27.82;100436.28;5072892;28;45835;-44
2022/12/12 00:41:34;;;;;;;;;10.00;9.50;;;;;17.85;27.86;100438.00;5077906;28;45395;-46
2022/12/12 00:44:00;;;;;;;;;15.00;13.25;;;;;17.88;27.79;100443.09;5063927;28;45441;-46
2022/12/12 00:46:25;;;;;;;;;12.75;12.75;;;;;17.90;27.93;100448.25;5066457;28;45284;-45
2022/12/12 00:48:54;;;;;;;;;14.00;12.75;;;;;17.90;27.89;100449.13;5061859;28;47000;-48
2022/12/12 00:51:21;;;;;;;;;10.75;10.50;;;;;17.93;27.86;100446.31;5064232;28;45278;-54
2022/12/12 00:53:48;;;;;;;;;14.50;13.00;;;;;17.95;27.77;100441.00;5073431;28;45348;-50
2022/12/12 00:56:14;;;;;;;;;14.25;12.75;;;;;17.97;27.77;100443.56;5079307;28;44903;-43
2022/12/12 00:58:40;;;;;;;;;12.25;11.75;;;;;17.98;27.72;100443.50;5079868;28;46178;-46
2022/12/12 01:01:14;;;;;;;;;12.75;12.50;;;;;18.00;27.75;100441.66;5068622;28;45375;-49
2022/12/12 01:03:41;;;;;;;;;10.50;9.50;;;;;18.01;27.95;100453.84;5060323;28;45418;-44
2022/12/12 01:06:08;;;;;;;;;12.50;10.75;;;;;18.03;27.76;100451.13;5061269;28;45345;-47
2022/12/12 01:08:34;;;;;;;;;15.00;10.25;;;;;18.04;27.83;100447.56;5067582;28;46636;-46
2022/12/12 01:10:59;;;;;;;;;12.25;10.25;;;;;18.06;27.66;100450.97;5064598;28;45288;-47
2022/12/12 01:13:25;;;;;;;;;11.75;9.25;;;;;18.07;27.75;100447.44;5059609;28;45273;-43
2022/12/12 01:15:51;;;;;;;;;12.00;10.25;;;;;18.08;27.88;100438.63;5059790;28;45469;-45
2022/12/12 01:18:17;;;;;;;;;10.50;9.50;;;;;18.08;27.95;100443.88;5059588;28;47357;-45
2022/12/12 01:20:43;;;;;;;;;12.75;9.00;;;;;18.11;27.86;100443.72;5060025;28;45818;-43
2022/12/12 01:23:08;;;;;;;;;10.75;8.00;;;;;18.13;28.01;100446.25;5072434;28;45513;-46
2022/12/12 01:25:34;;;;;;;;;12.00;12.00;;;;;18.14;27.73;100446.19;5073450;28;45237;-45
2022/12/12 01:27:59;;;;;;;;;13.25;10.25;;;;;18.14;27.86;100454.03;5076285;28;45527;-45
2022/12/12 01:30:25;;;;;;;;;11.00;10.50;;;;;18.18;27.75;100460.00;5070687;28;45402;-46
2022/12/12 01:32:50;;;;;;;;;12.00;10.75;;;;;18.18;27.51;100452.97;5062288;28;45319;-46
2022/12/12 01:35:17;;;;;;;;;9.25;9.25;;;;;18.19;27.67;100459.91;5061347;28;45422;-41
2022/12/12 01:37:42;;;;;;;;;6.00;6.00;;;;;18.17;27.72;100459.13;5072462;28;46252;-46
2022/12/12 01:40:14;;;;;;;;;13.00;10.75;;;;;18.19;27.79;100456.47;5070000;28;45320;-44
2022/12/12 01:42:40;;;;;;;;;11.25;10.25;;;;;18.23;27.59;100457.97;5062373;28;45312;-46
2022/12/12 01:45:06;;;;;;;;;9.50;8.50;;;;;18.22;27.82;100465.00;5062296;28;45401;-47
2022/12/12 01:47:32;;;;;;;;;13.25;9.75;;;;;18.24;27.62;100460.50;5066912;28;45518;-48
2022/12/12 01:50:07;;;;;;;;;10.00;10.00;;;;;18.26;27.58;100454.34;5066884;28;45435;-46
2022/12/12 01:52:47;;;;;;;;;5.50;5.00;;;;;18.28;27.72;100466.47;5068701;28;45359;-42
2022/12/12 01:55:19;;;;;;;;;12.00;11.00;;;;;18.27;27.58;100467.41;5059551;28;45420;-44
2022/12/12 01:57:47;;;;;;;;;11.00;10.50;;;;;18.30;27.65;100458.50;5061323;28;46420;-45
2022/12/12 02:00:13;;;;;;;;;8.00;8.00;;;;;18.30;27.83;100458.50;5061206;28;45276;-44
2022/12/12 02:02:41;;;;;;;;;12.75;10.75;;;;;18.32;27.56;100456.66;5079871;28;45254;-45
2022/12/12 02:05:17;;;;;;;;;6.75;6.75;;;;;18.32;27.58;100448.78;5069307;28;45230;-45
2022/12/12 02:07:42;;;;;;;;;9.00;9.00;;;;;18.34;27.71;100462.69;5059576;28;46047;-42
2022/12/12 02:10:08;;;;;;;;;10.50;9.25;;;;;18.34;27.79;100455.66;5060274;28;45264;-45
2022/12/12 02:12:33;;;;;;;;;8.25;7.25;;;;;18.35;27.75;100459.97;5058669;28;46410;-45
2022/12/12 02:14:59;;;;;;;;;9.75;9.75;;;;;18.35;27.61;100456.50;5060727;28;45311;-45
2022/12/12 02:17:33;;;;;;;;;9.50;9.50;;;;;18.37;27.50;100457.25;5060401;28;46104;-43
2022/12/12 02:20:35;;;;;;;;;9.00;8.50;;;;;18.39;27.67;100458.03;5062146;28;45399;-44
2022/12/12 02:23:17;;;;;;;;;8.75;8.00;;;;;18.39;27.84;100458.03;5072432;28;45314;-46
2022/12/12 02:26:26;;;;;;;;;10.50;9.50;;;;;18.38;27.45;100453.72;5064329;28;45486;-43
2022/12/12 02:29:18;;;;;;;;;11.25;9.00;;;;;18.41;27.48;100466.69;5060811;28;46581;-44
2022/12/12 02:32:28;;;;;;;;;9.50;7.25;;;;;18.41;27.62;100464.06;5059137;28;46021;-46
2022/12/12 02:34:59;;;;;;;;;7.75;7.75;;;;;18.44;27.71;100460.41;5050130;28;45254;-45
2022/12/12 02:37:27;;;;;;;;;9.00;6.50;;;;;18.43;27.78;100462.19;5076801;28;44857;-45
2022/12/12 02:40:09;;;;;;;;;10.50;8.00;;;;;18.42;27.69;100457.88;5059307;28;45695;-47
2022/12/12 02:42:48;;;;;;;;;7.00;7.00;;;;;18.46;27.73;100463.81;5058584;28;45821;-48
2022/12/12 02:45:23;;;;;;;;;11.50;8.00;;;;;18.46;27.60;100464.66;5066105;28;45269;-48
2022/12/12 02:47:59;;;;;;;;;9.00;8.50;;;;;18.47;27.82;100465.50;5066184;28;45233;-47
2022/12/12 02:50:28;;;;;;;;;10.25;9.75;;;;;18.48;27.26;100467.22;5057997;28;46252;-48
2022/12/12 02:52:53;;;;;;;;;8.75;8.25;;;;;18.48;27.52;100462.78;5057591;28;45481;-47
2022/12/12 02:55:19;;;;;;;;;7.50;6.00;;;;;18.49;27.46;100461.88;5061507;28;45308;-44
2022/12/12 02:57:46;;;;;;;;;8.25;7.00;;;;;18.48;27.51;100460.16;5060752;28;45668;-42
2022/12/12 03:00:16;;;;;;;;;7.50;7.00;;;;;18.51;27.85;100454.75;5068411;28;46227;-44
2022/12/12 03:08:57;;;;;;;;;11.75;11.25;;;;;18.51;27.43;100452.13;5058198;28;45428;-43
2022/12/12 03:11:54;;;;;;;;;11.50;8.25;;;;;18.54;27.55;100462.47;5039511;28;47177;-44
2022/12/12 03:14:36;;;;;;;;;7.75;7.50;;;;;18.52;27.64;100448.59;5058010;28;45204;-44
2022/12/12 03:17:13;;;;;;;;;10.00;8.25;;;;;18.53;27.55;100445.03;5058335;28;45497;-44
2022/12/12 03:19:42;;;;;;;;;5.75;5.75;;;;;18.57;27.45;100444.88;5057757;28;45391;-44
2022/12/12 03:22:10;;;;;;;;;11.25;8.50;;;;;18.56;27.59;100443.19;5057759;28;46423;-43
2022/12/12 03:24:57;;;;;;;;;8.00;6.75;;;;;18.57;27.50;100444.88;5057702;28;45873;-46
2022/12/12 03:27:35;;;;;;;;;9.00;8.00;;;;;18.60;27.68;100450.81;5057805;28;45411;-45
2022/12/12 03:30:10;;;;;;;;;8.00;8.00;;;;;18.58;27.69;100436.06;5077834;28;45364;-44
2022/12/12 03:32:45;;;;;;;;;8.50;7.50;;;;;18.58;27.57;100442.16;5082642;28;46320;-47
2022/12/12 03:35:19;;;;;;;;;8.00;8.00;;;;;18.60;27.42;100449.94;5077240;28;45150;-45
2022/12/12 03:38:00;;;;;;;;;9.25;8.00;;;;;18.62;27.34;100450.72;5058425;28;45281;-45
2022/12/12 03:40:30;;;;;;;;;8.00;8.00;;;;;18.59;27.70;100440.38;5057757;28;45378;-46
2022/12/12 03:43:06;;;;;;;;;8.50;7.50;;;;;18.62;27.62;100455.97;5057094;28;46156;-45
2022/12/12 03:45:56;;;;;;;;;7.25;6.25;;;;;18.65;27.47;100453.19;5057806;28;45915;-44
2022/12/12 03:48:27;;;;;;;;;8.25;8.25;;;;;18.64;27.48;100451.50;5057466;28;45330;-44
2022/12/12 03:50:59;;;;;;;;;8.00;7.00;;;;;18.65;27.37;100459.28;5057537;28;45264;-43
2022/12/12 03:53:37;;;;;;;;;6.50;4.00;;;;;18.66;27.35;100462.75;5057505;28;45402;-43
2022/12/12 03:56:11;;;;;;;;;11.75;7.00;;;;;18.65;27.39;100461.91;5041131;28;46038;-46
2022/12/12 03:58:39;;;;;;;;;7.25;6.75;;;;;18.68;27.58;100468.78;5045989;28;45355;-46
2022/12/12 04:01:10;;;;;;;;;9.50;8.25;;;;;18.68;27.56;100464.38;5063161;28;45631;-45
2022/12/12 04:04:02;;;;;;;;;7.50;6.75;;;;;18.70;27.44;100466.91;5064728;28;45424;-45
2022/12/12 04:06:59;;;;;;;;;7.75;7.75;;;;;18.70;27.69;100469.53;5072617;28;45426;-44
2022/12/12 04:15:45;;;;;;;;;10.25;7.50;;;;;18.73;27.56;100479.88;5076573;28;44999;-45
2022/12/12 04:18:58;;;;;;;;;9.00;6.00;;;;;18.72;27.36;100472.94;5070065;28;45308;-45
2022/12/12 04:24:59;;;;;;;;;8.00;6.50;;;;;18.74;27.63;100481.56;5074014;28;44699;-44
2022/12/12 04:27:40;;;;;;;;;8.25;7.00;;;;;18.73;27.31;100479.88;5061900;28;46473;-45
2022/12/12 04:30:08;;;;;;;;;6.50;5.75;;;;;18.75;27.50;100485.91;5068502;28;45253;-46
2022/12/12 04:32:39;;;;;;;;;6.00;6.00;;;;;18.74;27.30;100484.19;5077099;28;45295;-47
2022/12/12 04:35:11;;;;;;;;;5.00;5.00;;;;;18.76;27.34;100482.34;5075560;28;45300;-48
2022/12/12 04:37:39;;;;;;;;;11.50;9.00;;;;;18.77;27.75;100489.28;5074587;28;46361;-47
2022/12/12 04:40:22;;;;;;;;;8.00;7.50;;;;;18.78;27.27;100477.88;5084278;28;45106;-45
2022/12/12 04:42:59;;;;;;;;;7.00;7.00;;;;;18.78;27.57;100484.88;5049448;28;45376;-45
2022/12/12 04:45:32;;;;;;;;;11.75;6.25;;;;;18.78;27.73;100488.38;5061463;28;45435;-48
2022/12/12 04:47:59;;;;;;;;;7.25;6.50;;;;;18.77;27.61;100484.03;5060833;28;45375;-49
2022/12/12 04:50:28;;;;;;;;;9.75;8.00;;;;;18.80;27.59;100483.84;5060367;28;45897;-47
2022/12/12 04:52:57;;;;;;;;;7.25;7.00;;;;;18.81;27.74;100485.56;5061368;28;45405;-46
2022/12/12 04:55:45;;;;;;;;;14.00;8.25;;;;;18.82;27.59;100482.00;5060754;28;45525;-48
2022/12/12 04:58:11;;;;;;;;;10.50;8.00;;;;;18.82;27.87;100487.25;5061044;28;46219;-46
2022/12/12 05:00:46;;;;;;;;;9.25;7.00;;;;;18.83;27.69;100488.94;5066561;28;45408;-45
2022/12/12 05:03:23;;;;;;;;;9.75;7.25;;;;;18.84;27.73;100489.81;5065283;28;45268;-46
2022/12/12 05:06:00;;;;;;;;;8.00;8.00;;;;;18.85;27.32;100487.09;5067923;28;45184;-44
2022/12/12 05:08:33;;;;;;;;;8.00;6.50;;;;;18.87;27.81;100483.53;5065439;28;47318;-45
2022/12/12 05:11:01;;;;;;;;;8.25;7.75;;;;;18.86;27.65;100480.06;5060470;28;45430;-47
2022/12/12 05:13:29;;;;;;;;;7.00;6.75;;;;;18.87;27.63;100486.16;5061081;28;45292;-43
2022/12/12 05:15:57;;;;;;;;;7.75;6.25;;;;;18.88;27.79;100490.50;5062984;28;45621;-44
2022/12/12 05:18:23;;;;;;;;;7.00;5.00;;;;;18.89;27.60;100484.31;5062294;28;45516;-48
2022/12/12 05:20:51;;;;;;;;;7.00;7.00;;;;;18.90;27.65;100499.13;5065259;28;45227;-43
2022/12/12 05:23:17;;;;;;;;;6.75;6.75;;;;;18.90;27.71;100494.72;5061891;28;45174;-42
2022/12/12 05:25:42;;;;;;;;;7.75;7.50;;;;;18.90;27.75;100494.72;5061992;28;45341;-43
2022/12/12 05:28:08;;;;;;;;;8.00;8.00;;;;;18.90;27.80;100486.00;5061066;28;46222;-45
2022/12/12 05:30:33;;;;;;;;;9.00;7.25;;;;;18.92;27.57;100486.75;5060591;28;45356;-46
2022/12/12 05:32:59;;;;;;;;;8.75;6.00;;;;;18.92;27.84;100477.13;5062211;28;45396;-50
2022/12/12 05:35:25;;;;;;;;;4.00;4.00;;;;;18.93;27.94;100473.59;5043873;28;45663;-48
2022/12/12 05:37:50;;;;;;;;;7.50;7.00;;;;;18.93;27.91;100468.34;5061579;28;46674;-43
2022/12/12 05:40:16;;;;;;;;;8.00;8.00;;;;;18.94;27.62;100463.91;5060673;28;45348;-45
2022/12/12 05:42:41;;;;;;;;;8.00;6.00;;;;;18.95;28.02;100468.25;5061096;28;45313;-45
2022/12/12 05:45:08;;;;;;;;;9.25;7.25;;;;;18.94;27.68;100471.78;5062779;28;45549;-47
2022/12/12 05:47:34;;;;;;;;;7.75;5.75;;;;;18.95;27.71;100479.63;5061768;28;47135;-44
2022/12/12 05:49:59;;;;;;;;;6.00;6.00;;;;;18.96;27.67;100472.56;5062793;28;45234;-44
2022/12/12 05:52:25;;;;;;;;;6.00;6.00;;;;;18.95;27.81;100470.88;5060894;28;45150;-46
2022/12/12 05:54:50;;;;;;;;;7.25;6.50;;;;;18.97;27.74;100479.53;5061105;28;45660;-44
2022/12/12 05:57:17;;;;;;;;;8.00;5.25;;;;;18.96;27.60;100468.16;5061952;28;46975;-46
2022/12/12 05:59:43;;;;;;;;;7.50;6.75;;;;;18.98;27.71;100486.47;5062198;28;45892;-45
2022/12/12 06:02:09;;;;;;;;;7.00;7.00;;;;;18.98;27.84;100481.22;5051034;28;45297;-45
2022/12/12 06:04:34;;;;;;;;;7.50;6.75;;;;;18.99;27.66;100493.41;5073339;28;45503;-47
2022/12/12 06:07:00;;;;;;;;;10.75;8.00;;;;;19.00;27.47;100490.69;5067096;28;46225;-49
2022/12/12 06:09:25;;;;;;;;;7.75;6.75;;;;;18.99;27.48;100489.00;5067903;28;45328;-46
2022/12/12 06:11:50;;;;;;;;;9.00;9.00;;;;;18.99;27.32;100488.16;5064262;28;45365;-45
2022/12/12 06:14:16;;;;;;;;;9.25;8.00;;;;;19.00;27.27;100487.25;5067536;28;45570;-44
2022/12/12 06:16:41;;;;;;;;;7.50;7.00;;;;;19.01;27.75;100486.31;5065746;28;46074;-43
2022/12/12 06:19:06;;;;;;;;;8.00;7.00;;;;;19.00;27.28;100493.31;5043791;28;45337;-46
2022/12/12 06:21:32;;;;;;;;;11.25;7.00;;;;;19.01;27.26;100491.56;5063740;28;44795;-44
2022/12/12 06:23:57;;;;;;;;;7.33;7.33;;;;;19.00;27.29;100488.06;5074585;28;45352;-42
2022/12/12 06:26:22;;;;;;;;;9.00;8.00;;;;;19.01;27.76;100491.56;5068627;28;45388;-51
2022/12/12 06:28:48;;;;;;;;;8.75;8.75;;;;;19.00;27.16;100493.31;5069171;28;45302;-45
2022/12/12 06:31:14;;;;;;;;;10.00;9.00;;;;;19.01;27.38;100496.81;5074161;28;44655;-44
2022/12/12 06:33:41;;;;;;;;;9.00;8.50;;;;;19.02;27.25;100498.47;5072879;28;44842;-45
2022/12/12 06:36:17;;;;;;;;;8.75;7.50;;;;;19.02;27.25;100501.09;5068267;28;46198;-41
2022/12/12 06:38:43;;;;;;;;;7.50;7.50;;;;;19.02;27.55;100503.75;5078343;28;45055;-43
2022/12/12 06:41:12;;;;;;;;;9.00;8.00;;;;;19.04;27.27;100507.13;5077577;28;45252;-44
2022/12/12 06:43:38;;;;;;;;;6.00;6.00;;;;;19.03;27.39;100497.56;5080427;28;45454;-47
2022/12/12 06:46:06;;;;;;;;;6.25;6.25;;;;;19.03;27.14;100504.59;5076251;28;45202;-46
2022/12/12 06:48:33;;;;;;;;;9.00;8.00;;;;;19.01;27.56;100494.19;5058455;28;45229;-44
2022/12/12 06:51:03;;;;;;;;;13.50;10.75;;;;;19.03;27.38;100494.94;5062272;28;45352;-44
2022/12/12 06:53:29;;;;;;;;;8.50;7.25;;;;;19.02;27.05;100495.84;5060305;28;45320;-43
2022/12/12 06:55:54;;;;;;;;;9.50;8.75;;;;;19.03;27.59;100502.81;5065955;28;50202;-42
2022/12/12 06:58:19;;;;;;;;;10.50;9.75;;;;;19.03;27.46;100502.81;5059473;28;45400;-50
2022/12/12 07:00:49;;;;;;;;;17.33;14.00;;;;;19.02;27.55;100498.47;5058423;28;45336;-46
2022/12/12 07:03:15;;;;;;;;;25.75;22.00;;;;;19.04;27.11;100496.63;5072807;28;45289;-46
2022/12/12 07:05:40;;;;;;;;;22.50;21.50;;;;;19.03;27.28;100486.22;5065333;28;45308;-47
2022/12/12 07:08:06;;;;;;;;;21.75;21.25;;;;;19.02;26.95;100480.09;5063457;28;45450;-47
2022/12/12 07:10:34;;;;;;;;;26.25;21.50;;;;;19.00;26.62;100476.72;5064244;28;45459;-46
2022/12/12 07:12:59;;;;;;;;;19.25;19.00;;;;;18.97;26.47;100476.88;5065118;28;45578;-47
2022/12/12 07:15:25;;;;;;;;;16.00;14.67;;;;;18.95;26.57;100482.25;5058242;28;47152;-46
2022/12/12 07:17:52;;;;;;;;;13.50;12.50;;;;;18.93;26.48;100491.06;5039910;28;46349;-45
2022/12/12 07:20:18;;;;;;;;;13.00;11.75;;;;;18.93;27.00;100498.97;5058538;28;45336;-44
2022/12/12 07:22:43;;;;;;;;;12.00;9.75;;;;;18.92;26.99;100508.63;5058121;28;45371;-42
2022/12/12 07:25:09;;;;;;;;;11.67;11.67;;;;;18.91;26.64;100511.31;5057248;28;62352;-45
2022/12/12 07:27:34;;;;;;;;;12.33;11.67;;;;;18.89;27.02;100510.56;5057132;28;47043;-44
2022/12/12 07:29:59;;;;;;;;;11.00;8.25;;;;;18.88;26.58;100516.75;5057784;28;45430;-42
2022/12/12 07:32:25;;;;;;;;;12.50;11.50;;;;;18.86;26.61;100516.81;5062471;28;45359;-48
2022/12/12 07:34:50;;;;;;;;;18.25;11.75;;;;;18.83;26.98;100519.63;5056115;28;46219;-46
2022/12/12 07:37:15;;;;;;;;;14.75;13.50;;;;;18.83;26.95;100517.84;5076152;28;45426;-46
2022/12/12 07:39:41;;;;;;;;;9.25;9.25;;;;;18.80;26.59;100520.63;5071231;28;44777;-46
2022/12/12 07:42:06;;;;;;;;;13.50;13.25;;;;;18.78;26.70;100519.88;5067490;28;45307;-41
2022/12/12 07:44:31;;;;;;;;;13.25;11.75;;;;;18.77;27.07;100517.31;5051601;28;46518;-44
2022/12/12 07:46:57;;;;;;;;;12.00;12.00;;;;;18.76;26.94;100510.34;5077196;28;44742;-42
2022/12/12 07:49:23;;;;;;;;;11.75;10.75;;;;;18.73;27.05;100508.75;5076905;28;44705;-47
2022/12/12 07:51:49;;;;;;;;;11.75;10.00;;;;;18.72;26.96;100512.31;5077727;28;45407;-46
2022/12/12 07:54:14;;;;;;;;;11.50;9.50;;;;;18.71;26.84;100515.84;5069902;28;45754;-43
2022/12/12 07:56:40;;;;;;;;;12.00;9.50;;;;;18.68;26.92;100516.03;5061447;28;45288;-43
2022/12/12 07:59:05;;;;;;;;;12.25;11.25;;;;;18.67;26.96;100525.66;5059896;28;45307;-42
2022/12/12 08:01:31;;;;;;;;;12.75;11.25;;;;;18.65;26.85;100524.91;5060869;28;45511;-43
2022/12/12 08:03:56;;;;;;;;;11.50;8.50;;;;;18.63;26.79;100526.75;5068736;28;46157;-48
2022/12/12 08:06:22;;;;;;;;;13.50;11.75;;;;;18.61;27.20;100533.00;5055750;28;46405;-43
2022/12/12 08:08:49;;;;;;;;;11.75;10.25;;;;;18.58;27.09;100535.78;5069345;28;45240;-42
2022/12/12 08:11:19;;;;;;;;;11.50;10.00;;;;;18.54;27.03;100538.59;5062292;28;45308;-47
2022/12/12 08:13:45;;;;;;;;;13.00;12.75;;;;;18.51;27.29;100536.13;5065958;28;46136;-41
2022/12/12 08:16:20;;;;;;;;;12.50;11.50;;;;;18.48;27.26;100536.28;5066402;28;45336;-42
2022/12/12 08:18:46;;;;;;;;;13.00;12.50;;;;;18.45;27.15;100541.69;5064825;28;45245;-42
2022/12/12 08:21:13;;;;;;;;;14.00;13.25;;;;;18.43;27.35;100538.31;5062395;28;45232;-42
2022/12/12 08:23:39;;;;;;;;;16.00;13.25;;;;;18.39;27.24;100536.75;5075102;28;45864;-42
2022/12/12 08:26:07;;;;;;;;;13.75;10.75;;;;;18.39;27.26;100536.75;5063121;28;45902;-40
2022/12/12 08:28:33;;;;;;;;;15.25;13.00;;;;;18.35;27.22;100541.31;5056848;28;45410;-43
2022/12/12 08:30:58;;;;;;;;;12.75;12.00;;;;;18.31;27.38;100525.81;5056617;28;45292;-44
2022/12/12 08:33:24;;;;;;;;;11.25;11.25;;;;;18.29;27.33;100533.75;5056899;28;46651;-43
